sensor_id;sensor_type;location;lat;lon;timestamp;P1;durP1;ratioP1;P2;durP2;ratioP2
80625;SDS011;69982;51.758;5.784;2023-08-06T00:01:13;7.10;;;2.00;;
80625;SDS011;69982;51.758;5.784;2023-08-06T00:03:48;5.00;;;1.70;;
80625;SDS011;69982;51.758;5.784;2023-08-06T00:06:16;6.50;;;1.70;;
80625;SDS011;69982;51.758;5.784;2023-08-06T00:08:43;4.10;;;1.80;;
80625;SDS011;69982;51.758;5.784;2023-08-06T00:11:11;5.10;;;2.00;;
80625;SDS011;69982;51.758;5.784;2023-08-06T00:13:40;3.90;;;1.60;;
80625;SDS011;69982;51.758;5.784;2023-08-06T00:16:11;4.80;;;1.30;;
80625;SDS011;69982;51.758;5.784;2023-08-06T00:18:40;4.00;;;1.60;;
80625;SDS011;69982;51.758;5.784;2023-08-06T00:21:08;4.40;;;1.40;;
80625;SDS011;69982;51.758;5.784;2023-08-06T00:23:35;3.80;;;1.50;;
80625;SDS011;69982;51.758;5.784;2023-08-06T00:26:03;6.00;;;1.80;;
80625;SDS011;69982;51.758;5.784;2023-08-06T00:28:31;4.30;;;1.60;;
80625;SDS011;69982;51.758;5.784;2023-08-06T00:30:58;6.90;;;1.40;;
80625;SDS011;69982;51.758;5.784;2023-08-06T00:33:26;4.60;;;1.80;;
80625;SDS011;69982;51.758;5.784;2023-08-06T00:35:53;4.70;;;1.60;;
80625;SDS011;69982;51.758;5.784;2023-08-06T00:38:21;5.00;;;1.60;;
80625;SDS011;69982;51.758;5.784;2023-08-06T00:40:49;4.40;;;1.40;;
80625;SDS011;69982;51.758;5.784;2023-08-06T00:43:16;5.80;;;2.00;;
80625;SDS011;69982;51.758;5.784;2023-08-06T00:45:44;4.60;;;1.70;;
80625;SDS011;69982;51.758;5.784;2023-08-06T00:48:12;3.60;;;1.50;;
80625;SDS011;69982;51.758;5.784;2023-08-06T00:50:40;5.60;;;2.30;;
80625;SDS011;69982;51.758;5.784;2023-08-06T00:53:08;6.10;;;2.30;;
80625;SDS011;69982;51.758;5.784;2023-08-06T00:55:36;5.50;;;1.70;;
80625;SDS011;69982;51.758;5.784;2023-08-06T01:00:32;7.20;;;1.90;;
80625;SDS011;69982;51.758;5.784;2023-08-06T01:02:59;5.00;;;1.60;;
80625;SDS011;69982;51.758;5.784;2023-08-06T01:05:27;4.60;;;1.70;;
80625;SDS011;69982;51.758;5.784;2023-08-06T01:08:05;3.80;;;2.00;;
80625;SDS011;69982;51.758;5.784;2023-08-06T01:13:27;4.10;;;1.90;;
80625;SDS011;69982;51.758;5.784;2023-08-06T01:16:05;4.80;;;1.70;;
80625;SDS011;69982;51.758;5.784;2023-08-06T01:18:33;6.60;;;2.10;;
80625;SDS011;69982;51.758;5.784;2023-08-06T01:21:01;5.90;;;1.90;;
80625;SDS011;69982;51.758;5.784;2023-08-06T01:23:29;5.70;;;2.30;;
80625;SDS011;69982;51.758;5.784;2023-08-06T01:28:56;6.50;;;2.30;;
80625;SDS011;69982;51.758;5.784;2023-08-06T01:31:31;4.70;;;2.30;;
80625;SDS011;69982;51.758;5.784;2023-08-06T01:34:03;8.20;;;2.10;;
80625;SDS011;69982;51.758;5.784;2023-08-06T01:36:33;5.60;;;2.00;;
80625;SDS011;69982;51.758;5.784;2023-08-06T01:41:28;4.60;;;2.10;;
80625;SDS011;69982;51.758;5.784;2023-08-06T01:43:56;10.20;;;2.30;;
80625;SDS011;69982;51.758;5.784;2023-08-06T01:46:24;4.70;;;2.00;;
80625;SDS011;69982;51.758;5.784;2023-08-06T01:48:51;5.20;;;1.80;;
80625;SDS011;69982;51.758;5.784;2023-08-06T01:51:19;4.80;;;2.10;;
80625;SDS011;69982;51.758;5.784;2023-08-06T01:53:47;6.00;;;1.90;;
80625;SDS011;69982;51.758;5.784;2023-08-06T01:56:14;5.70;;;2.20;;
80625;SDS011;69982;51.758;5.784;2023-08-06T01:58:42;7.50;;;2.50;;
80625;SDS011;69982;51.758;5.784;2023-08-06T02:01:09;6.60;;;2.20;;
80625;SDS011;69982;51.758;5.784;2023-08-06T02:03:37;6.10;;;2.10;;
80625;SDS011;69982;51.758;5.784;2023-08-06T02:06:05;5.80;;;1.90;;
80625;SDS011;69982;51.758;5.784;2023-08-06T02:08:32;5.80;;;1.80;;
80625;SDS011;69982;51.758;5.784;2023-08-06T02:11:00;6.20;;;2.10;;
80625;SDS011;69982;51.758;5.784;2023-08-06T02:13:29;4.70;;;1.90;;
80625;SDS011;69982;51.758;5.784;2023-08-06T02:15:56;5.80;;;2.20;;
80625;SDS011;69982;51.758;5.784;2023-08-06T02:18:24;6.90;;;2.40;;
80625;SDS011;69982;51.758;5.784;2023-08-06T02:20:55;6.90;;;2.10;;
80625;SDS011;69982;51.758;5.784;2023-08-06T02:23:27;4.70;;;2.00;;
80625;SDS011;69982;51.758;5.784;2023-08-06T02:25:59;5.30;;;2.00;;
80625;SDS011;69982;51.758;5.784;2023-08-06T02:28:28;4.90;;;2.00;;
80625;SDS011;69982;51.758;5.784;2023-08-06T02:30:59;5.70;;;2.20;;
80625;SDS011;69982;51.758;5.784;2023-08-06T02:33:27;6.10;;;2.00;;
80625;SDS011;69982;51.758;5.784;2023-08-06T02:36:01;6.50;;;1.70;;
80625;SDS011;69982;51.758;5.784;2023-08-06T02:38:31;4.70;;;1.90;;
80625;SDS011;69982;51.758;5.784;2023-08-06T02:40:59;5.30;;;2.30;;
80625;SDS011;69982;51.758;5.784;2023-08-06T02:43:30;6.30;;;2.50;;
80625;SDS011;69982;51.758;5.784;2023-08-06T02:45:59;4.80;;;2.10;;
80625;SDS011;69982;51.758;5.784;2023-08-06T02:48:27;8.30;;;2.40;;
80625;SDS011;69982;51.758;5.784;2023-08-06T02:50:58;4.60;;;1.90;;
80625;SDS011;69982;51.758;5.784;2023-08-06T02:53:26;6.00;;;2.20;;
80625;SDS011;69982;51.758;5.784;2023-08-06T02:55:54;7.10;;;1.70;;
80625;SDS011;69982;51.758;5.784;2023-08-06T02:58:22;5.60;;;2.20;;
80625;SDS011;69982;51.758;5.784;2023-08-06T03:01:08;8.80;;;2.00;;
80625;SDS011;69982;51.758;5.784;2023-08-06T03:03:36;5.60;;;1.70;;
80625;SDS011;69982;51.758;5.784;2023-08-06T03:06:03;7.00;;;2.00;;
80625;SDS011;69982;51.758;5.784;2023-08-06T03:08:31;4.70;;;1.60;;
80625;SDS011;69982;51.758;5.784;2023-08-06T03:10:59;5.30;;;1.80;;
80625;SDS011;69982;51.758;5.784;2023-08-06T03:13:26;4.70;;;1.70;;
80625;SDS011;69982;51.758;5.784;2023-08-06T03:15:55;4.90;;;1.90;;
80625;SDS011;69982;51.758;5.784;2023-08-06T03:18:24;6.00;;;2.30;;
80625;SDS011;69982;51.758;5.784;2023-08-06T03:20:53;4.20;;;1.80;;
80625;SDS011;69982;51.758;5.784;2023-08-06T03:23:21;6.40;;;2.20;;
80625;SDS011;69982;51.758;5.784;2023-08-06T03:25:49;8.50;;;1.90;;
80625;SDS011;69982;51.758;5.784;2023-08-06T03:28:17;4.70;;;1.80;;
80625;SDS011;69982;51.758;5.784;2023-08-06T03:30:45;4.50;;;2.00;;
80625;SDS011;69982;51.758;5.784;2023-08-06T03:33:12;5.50;;;1.80;;
80625;SDS011;69982;51.758;5.784;2023-08-06T03:35:40;4.90;;;2.00;;
80625;SDS011;69982;51.758;5.784;2023-08-06T03:38:08;4.60;;;1.80;;
80625;SDS011;69982;51.758;5.784;2023-08-06T03:40:35;4.80;;;1.90;;
80625;SDS011;69982;51.758;5.784;2023-08-06T03:43:03;4.70;;;1.80;;
80625;SDS011;69982;51.758;5.784;2023-08-06T03:45:31;6.30;;;1.90;;
80625;SDS011;69982;51.758;5.784;2023-08-06T03:47:58;6.00;;;1.90;;
80625;SDS011;69982;51.758;5.784;2023-08-06T03:50:26;6.50;;;1.80;;
80625;SDS011;69982;51.758;5.784;2023-08-06T03:52:53;6.00;;;1.90;;
80625;SDS011;69982;51.758;5.784;2023-08-06T03:57:49;5.80;;;2.30;;
80625;SDS011;69982;51.758;5.784;2023-08-06T04:00:16;5.50;;;2.30;;
80625;SDS011;69982;51.758;5.784;2023-08-06T04:02:44;4.90;;;2.30;;
80625;SDS011;69982;51.758;5.784;2023-08-06T04:05:13;6.50;;;2.40;;
80625;SDS011;69982;51.758;5.784;2023-08-06T04:07:40;6.70;;;2.50;;
80625;SDS011;69982;51.758;5.784;2023-08-06T04:10:08;6.20;;;2.40;;
80625;SDS011;69982;51.758;5.784;2023-08-06T04:15:05;5.20;;;2.30;;
80625;SDS011;69982;51.758;5.784;2023-08-06T04:17:33;5.80;;;2.20;;
80625;SDS011;69982;51.758;5.784;2023-08-06T04:20:01;6.20;;;2.40;;
80625;SDS011;69982;51.758;5.784;2023-08-06T04:22:29;4.70;;;2.30;;
80625;SDS011;69982;51.758;5.784;2023-08-06T04:24:57;4.80;;;2.10;;
80625;SDS011;69982;51.758;5.784;2023-08-06T04:27:25;6.00;;;2.20;;
80625;SDS011;69982;51.758;5.784;2023-08-06T04:32:20;5.40;;;2.20;;
80625;SDS011;69982;51.758;5.784;2023-08-06T04:34:48;6.90;;;2.60;;
80625;SDS011;69982;51.758;5.784;2023-08-06T04:37:16;5.80;;;2.70;;
80625;SDS011;69982;51.758;5.784;2023-08-06T04:39:43;7.10;;;2.60;;
80625;SDS011;69982;51.758;5.784;2023-08-06T04:42:11;6.50;;;2.70;;
80625;SDS011;69982;51.758;5.784;2023-08-06T04:44:38;6.50;;;2.80;;
80625;SDS011;69982;51.758;5.784;2023-08-06T04:47:06;6.70;;;2.60;;
80625;SDS011;69982;51.758;5.784;2023-08-06T04:49:34;5.10;;;2.80;;
80625;SDS011;69982;51.758;5.784;2023-08-06T04:52:02;6.30;;;2.90;;
80625;SDS011;69982;51.758;5.784;2023-08-06T04:54:29;7.30;;;2.90;;
80625;SDS011;69982;51.758;5.784;2023-08-06T04:56:57;7.00;;;3.40;;
80625;SDS011;69982;51.758;5.784;2023-08-06T04:59:25;6.30;;;3.00;;
80625;SDS011;69982;51.758;5.784;2023-08-06T05:01:52;11.10;;;3.70;;
80625;SDS011;69982;51.758;5.784;2023-08-06T05:04:20;8.60;;;3.90;;
80625;SDS011;69982;51.758;5.784;2023-08-06T05:06:48;6.20;;;3.70;;
80625;SDS011;69982;51.758;5.784;2023-08-06T05:09:15;8.30;;;3.80;;
80625;SDS011;69982;51.758;5.784;2023-08-06T05:11:43;7.90;;;3.90;;
80625;SDS011;69982;51.758;5.784;2023-08-06T05:14:11;9.10;;;4.10;;
80625;SDS011;69982;51.758;5.784;2023-08-06T05:16:38;10.10;;;4.20;;
80625;SDS011;69982;51.758;5.784;2023-08-06T05:19:06;8.90;;;4.30;;
80625;SDS011;69982;51.758;5.784;2023-08-06T05:21:34;8.70;;;4.40;;
80625;SDS011;69982;51.758;5.784;2023-08-06T05:24:01;11.30;;;5.30;;
80625;SDS011;69982;51.758;5.784;2023-08-06T05:26:29;11.10;;;4.80;;
80625;SDS011;69982;51.758;5.784;2023-08-06T05:28:57;10.30;;;5.30;;
80625;SDS011;69982;51.758;5.784;2023-08-06T05:31:24;15.30;;;7.00;;
80625;SDS011;69982;51.758;5.784;2023-08-06T05:33:52;12.60;;;6.20;;
80625;SDS011;69982;51.758;5.784;2023-08-06T05:36:20;9.90;;;5.90;;
80625;SDS011;69982;51.758;5.784;2023-08-06T05:38:48;11.60;;;6.00;;
80625;SDS011;69982;51.758;5.784;2023-08-06T05:41:16;11.80;;;6.40;;
80625;SDS011;69982;51.758;5.784;2023-08-06T05:43:43;12.40;;;6.80;;
80625;SDS011;69982;51.758;5.784;2023-08-06T05:46:11;12.00;;;6.40;;
80625;SDS011;69982;51.758;5.784;2023-08-06T05:48:38;11.20;;;6.90;;
80625;SDS011;69982;51.758;5.784;2023-08-06T05:51:06;12.80;;;7.00;;
80625;SDS011;69982;51.758;5.784;2023-08-06T05:53:34;14.00;;;7.20;;
80625;SDS011;69982;51.758;5.784;2023-08-06T05:56:02;14.80;;;8.40;;
80625;SDS011;69982;51.758;5.784;2023-08-06T05:58:30;12.10;;;7.90;;
80625;SDS011;69982;51.758;5.784;2023-08-06T06:00:58;13.10;;;7.80;;
80625;SDS011;69982;51.758;5.784;2023-08-06T06:03:25;12.50;;;7.40;;
80625;SDS011;69982;51.758;5.784;2023-08-06T06:05:53;15.70;;;8.20;;
80625;SDS011;69982;51.758;5.784;2023-08-06T06:08:21;13.80;;;8.00;;
80625;SDS011;69982;51.758;5.784;2023-08-06T06:10:49;11.80;;;7.00;;
80625;SDS011;69982;51.758;5.784;2023-08-06T06:13:16;13.60;;;7.60;;
80625;SDS011;69982;51.758;5.784;2023-08-06T06:15:46;12.40;;;7.20;;
80625;SDS011;69982;51.758;5.784;2023-08-06T06:18:14;13.90;;;7.50;;
80625;SDS011;69982;51.758;5.784;2023-08-06T06:20:42;13.40;;;7.30;;
80625;SDS011;69982;51.758;5.784;2023-08-06T06:23:09;11.70;;;6.70;;
80625;SDS011;69982;51.758;5.784;2023-08-06T06:25:41;11.40;;;6.10;;
80625;SDS011;69982;51.758;5.784;2023-08-06T06:28:09;12.70;;;6.60;;
80625;SDS011;69982;51.758;5.784;2023-08-06T06:30:37;11.60;;;6.40;;
80625;SDS011;69982;51.758;5.784;2023-08-06T06:33:04;12.50;;;7.00;;
80625;SDS011;69982;51.758;5.784;2023-08-06T06:35:32;12.60;;;6.70;;
80625;SDS011;69982;51.758;5.784;2023-08-06T06:37:59;11.60;;;6.80;;
80625;SDS011;69982;51.758;5.784;2023-08-06T06:40:27;13.30;;;6.70;;
80625;SDS011;69982;51.758;5.784;2023-08-06T06:42:55;12.00;;;7.40;;
80625;SDS011;69982;51.758;5.784;2023-08-06T06:45:22;11.40;;;6.70;;
80625;SDS011;69982;51.758;5.784;2023-08-06T06:47:50;11.30;;;6.60;;
80625;SDS011;69982;51.758;5.784;2023-08-06T06:50:18;16.50;;;6.20;;
80625;SDS011;69982;51.758;5.784;2023-08-06T06:52:45;13.20;;;5.60;;
80625;SDS011;69982;51.758;5.784;2023-08-06T06:55:13;9.20;;;5.30;;
80625;SDS011;69982;51.758;5.784;2023-08-06T06:57:40;10.40;;;5.30;;
80625;SDS011;69982;51.758;5.784;2023-08-06T07:00:08;11.80;;;5.80;;
80625;SDS011;69982;51.758;5.784;2023-08-06T07:02:36;10.70;;;6.00;;
80625;SDS011;69982;51.758;5.784;2023-08-06T07:05:04;11.00;;;5.80;;
80625;SDS011;69982;51.758;5.784;2023-08-06T07:09:59;11.40;;;6.10;;
80625;SDS011;69982;51.758;5.784;2023-08-06T07:12:27;9.60;;;5.70;;
80625;SDS011;69982;51.758;5.784;2023-08-06T07:14:54;11.50;;;6.00;;
80625;SDS011;69982;51.758;5.784;2023-08-06T07:17:22;9.60;;;5.50;;
80625;SDS011;69982;51.758;5.784;2023-08-06T07:19:50;8.80;;;5.50;;
80625;SDS011;69982;51.758;5.784;2023-08-06T07:22:17;9.40;;;5.30;;
80625;SDS011;69982;51.758;5.784;2023-08-06T07:24:45;11.60;;;6.40;;
80625;SDS011;69982;51.758;5.784;2023-08-06T07:27:13;10.40;;;6.70;;
80625;SDS011;69982;51.758;5.784;2023-08-06T07:29:40;9.80;;;6.80;;
80625;SDS011;69982;51.758;5.784;2023-08-06T07:32:08;11.80;;;7.10;;
80625;SDS011;69982;51.758;5.784;2023-08-06T07:34:35;9.80;;;6.70;;
80625;SDS011;69982;51.758;5.784;2023-08-06T07:37:03;10.90;;;7.00;;
80625;SDS011;69982;51.758;5.784;2023-08-06T07:39:31;10.80;;;6.70;;
80625;SDS011;69982;51.758;5.784;2023-08-06T07:41:59;12.60;;;7.90;;
80625;SDS011;69982;51.758;5.784;2023-08-06T07:44:26;12.30;;;6.80;;
80625;SDS011;69982;51.758;5.784;2023-08-06T07:46:54;12.00;;;6.50;;
80625;SDS011;69982;51.758;5.784;2023-08-06T07:49:22;12.70;;;7.50;;
80625;SDS011;69982;51.758;5.784;2023-08-06T07:51:49;10.70;;;6.50;;
80625;SDS011;69982;51.758;5.784;2023-08-06T07:54:19;13.30;;;7.40;;
80625;SDS011;69982;51.758;5.784;2023-08-06T07:56:46;12.10;;;7.50;;
80625;SDS011;69982;51.758;5.784;2023-08-06T07:59:14;11.40;;;6.90;;
80625;SDS011;69982;51.758;5.784;2023-08-06T08:01:42;11.90;;;7.70;;
80625;SDS011;69982;51.758;5.784;2023-08-06T08:04:09;11.30;;;7.40;;
80625;SDS011;69982;51.758;5.784;2023-08-06T08:06:37;12.90;;;8.30;;
80625;SDS011;69982;51.758;5.784;2023-08-06T08:09:05;11.80;;;8.40;;
80625;SDS011;69982;51.758;5.784;2023-08-06T08:11:32;11.90;;;7.30;;
80625;SDS011;69982;51.758;5.784;2023-08-06T08:14:00;11.40;;;7.20;;
80625;SDS011;69982;51.758;5.784;2023-08-06T08:16:27;14.70;;;8.10;;
80625;SDS011;69982;51.758;5.784;2023-08-06T08:18:55;13.50;;;7.40;;
80625;SDS011;69982;51.758;5.784;2023-08-06T08:21:23;11.30;;;6.90;;
80625;SDS011;69982;51.758;5.784;2023-08-06T08:23:51;11.30;;;6.60;;
80625;SDS011;69982;51.758;5.784;2023-08-06T08:26:19;14.60;;;7.40;;
80625;SDS011;69982;51.758;5.784;2023-08-06T08:28:47;11.10;;;7.60;;
80625;SDS011;69982;51.758;5.784;2023-08-06T08:31:15;13.30;;;7.70;;
80625;SDS011;69982;51.758;5.784;2023-08-06T08:33:44;14.70;;;8.50;;
80625;SDS011;69982;51.758;5.784;2023-08-06T08:36:11;15.20;;;8.30;;
80625;SDS011;69982;51.758;5.784;2023-08-06T08:38:39;14.00;;;8.70;;
80625;SDS011;69982;51.758;5.784;2023-08-06T08:41:06;15.20;;;8.50;;
80625;SDS011;69982;51.758;5.784;2023-08-06T08:43:37;14.60;;;8.80;;
80625;SDS011;69982;51.758;5.784;2023-08-06T08:46:07;13.20;;;8.70;;
80625;SDS011;69982;51.758;5.784;2023-08-06T08:48:37;14.90;;;9.50;;
80625;SDS011;69982;51.758;5.784;2023-08-06T08:51:04;16.50;;;9.80;;
80625;SDS011;69982;51.758;5.784;2023-08-06T08:53:33;10.30;;;6.40;;
80625;SDS011;69982;51.758;5.784;2023-08-06T08:56:05;6.50;;;3.10;;
80625;SDS011;69982;51.758;5.784;2023-08-06T08:58:33;4.00;;;1.30;;
80625;SDS011;69982;51.758;5.784;2023-08-06T09:01:01;2.50;;;0.70;;
80625;SDS011;69982;51.758;5.784;2023-08-06T09:03:29;1.60;;;0.40;;
80625;SDS011;69982;51.758;5.784;2023-08-06T09:05:57;2.00;;;0.50;;
80625;SDS011;69982;51.758;5.784;2023-08-06T09:08:27;4.00;;;0.70;;
80625;SDS011;69982;51.758;5.784;2023-08-06T09:11:01;1.50;;;0.40;;
80625;SDS011;69982;51.758;5.784;2023-08-06T09:13:30;2.30;;;0.90;;
80625;SDS011;69982;51.758;5.784;2023-08-06T09:15:57;2.80;;;0.90;;
80625;SDS011;69982;51.758;5.784;2023-08-06T09:18:28;2.10;;;0.70;;
80625;SDS011;69982;51.758;5.784;2023-08-06T09:20:57;4.20;;;1.30;;
80625;SDS011;69982;51.758;5.784;2023-08-06T09:23:28;4.40;;;1.20;;
80625;SDS011;69982;51.758;5.784;2023-08-06T09:25:57;4.10;;;1.00;;
80625;SDS011;69982;51.758;5.784;2023-08-06T09:28:38;3.30;;;1.00;;
80625;SDS011;69982;51.758;5.784;2023-08-06T09:31:10;2.60;;;0.90;;
80625;SDS011;69982;51.758;5.784;2023-08-06T09:33:38;4.00;;;1.10;;
80625;SDS011;69982;51.758;5.784;2023-08-06T09:38:40;3.80;;;1.10;;
80625;SDS011;69982;51.758;5.784;2023-08-06T09:41:08;3.60;;;1.40;;
80625;SDS011;69982;51.758;5.784;2023-08-06T09:43:42;3.20;;;1.20;;
80625;SDS011;69982;51.758;5.784;2023-08-06T09:46:11;2.90;;;1.10;;
80625;SDS011;69982;51.758;5.784;2023-08-06T09:48:40;3.90;;;1.40;;
80625;SDS011;69982;51.758;5.784;2023-08-06T09:51:08;4.20;;;1.70;;
80625;SDS011;69982;51.758;5.784;2023-08-06T09:53:37;3.10;;;1.40;;
80625;SDS011;69982;51.758;5.784;2023-08-06T09:56:05;4.10;;;1.20;;
80625;SDS011;69982;51.758;5.784;2023-08-06T09:58:33;5.80;;;1.10;;
80625;SDS011;69982;51.758;5.784;2023-08-06T10:01:01;3.90;;;1.70;;
80625;SDS011;69982;51.758;5.784;2023-08-06T10:03:30;3.60;;;1.50;;
80625;SDS011;69982;51.758;5.784;2023-08-06T10:05:59;3.60;;;1.30;;
80625;SDS011;69982;51.758;5.784;2023-08-06T10:08:29;3.70;;;1.10;;
80625;SDS011;69982;51.758;5.784;2023-08-06T10:10:57;4.40;;;1.70;;
80625;SDS011;69982;51.758;5.784;2023-08-06T10:13:25;5.30;;;1.70;;
80625;SDS011;69982;51.758;5.784;2023-08-06T10:15:54;4.80;;;1.50;;
80625;SDS011;69982;51.758;5.784;2023-08-06T10:18:22;4.30;;;1.90;;
80625;SDS011;69982;51.758;5.784;2023-08-06T10:23:17;3.60;;;1.70;;
80625;SDS011;69982;51.758;5.784;2023-08-06T10:25:53;4.40;;;1.60;;
80625;SDS011;69982;51.758;5.784;2023-08-06T10:28:23;4.40;;;1.80;;
80625;SDS011;69982;51.758;5.784;2023-08-06T10:31:02;4.50;;;1.60;;
80625;SDS011;69982;51.758;5.784;2023-08-06T10:33:43;5.20;;;2.20;;
80625;SDS011;69982;51.758;5.784;2023-08-06T10:36:15;4.10;;;1.70;;
80625;SDS011;69982;51.758;5.784;2023-08-06T10:38:49;4.20;;;1.60;;
80625;SDS011;69982;51.758;5.784;2023-08-06T10:41:29;4.30;;;2.00;;
80625;SDS011;69982;51.758;5.784;2023-08-06T10:44:04;6.10;;;2.20;;
80625;SDS011;69982;51.758;5.784;2023-08-06T10:46:36;5.50;;;2.30;;
80625;SDS011;69982;51.758;5.784;2023-08-06T10:49:05;5.50;;;2.10;;
80625;SDS011;69982;51.758;5.784;2023-08-06T10:51:34;5.30;;;2.10;;
80625;SDS011;69982;51.758;5.784;2023-08-06T10:54:03;4.30;;;2.10;;
80625;SDS011;69982;51.758;5.784;2023-08-06T10:56:32;4.40;;;1.80;;
80625;SDS011;69982;51.758;5.784;2023-08-06T10:59:07;4.80;;;1.60;;
80625;SDS011;69982;51.758;5.784;2023-08-06T11:01:37;5.00;;;2.30;;
80625;SDS011;69982;51.758;5.784;2023-08-06T11:04:06;4.20;;;1.60;;
80625;SDS011;69982;51.758;5.784;2023-08-06T11:09:02;5.60;;;2.00;;
80625;SDS011;69982;51.758;5.784;2023-08-06T11:11:29;4.50;;;1.60;;
80625;SDS011;69982;51.758;5.784;2023-08-06T11:13:57;5.80;;;2.30;;
80625;SDS011;69982;51.758;5.784;2023-08-06T11:16:25;5.00;;;2.00;;
80625;SDS011;69982;51.758;5.784;2023-08-06T11:18:52;5.00;;;1.90;;
80625;SDS011;69982;51.758;5.784;2023-08-06T11:21:21;3.70;;;1.40;;
80625;SDS011;69982;51.758;5.784;2023-08-06T11:23:50;4.00;;;1.60;;
80625;SDS011;69982;51.758;5.784;2023-08-06T11:26:19;6.00;;;2.10;;
80625;SDS011;69982;51.758;5.784;2023-08-06T11:28:47;4.60;;;1.60;;
80625;SDS011;69982;51.758;5.784;2023-08-06T11:31:18;5.10;;;2.00;;
80625;SDS011;69982;51.758;5.784;2023-08-06T11:33:47;8.90;;;2.20;;
80625;SDS011;69982;51.758;5.784;2023-08-06T11:36:15;4.70;;;1.70;;
80625;SDS011;69982;51.758;5.784;2023-08-06T11:38:43;5.00;;;1.90;;
80625;SDS011;69982;51.758;5.784;2023-08-06T11:41:11;8.20;;;2.10;;
80625;SDS011;69982;51.758;5.784;2023-08-06T11:43:39;5.40;;;1.90;;
80625;SDS011;69982;51.758;5.784;2023-08-06T11:46:07;7.30;;;2.00;;
80625;SDS011;69982;51.758;5.784;2023-08-06T11:48:50;4.10;;;1.70;;
80625;SDS011;69982;51.758;5.784;2023-08-06T11:51:22;4.70;;;1.70;;
80625;SDS011;69982;51.758;5.784;2023-08-06T11:53:54;4.10;;;1.40;;
80625;SDS011;69982;51.758;5.784;2023-08-06T11:56:25;4.20;;;1.40;;
80625;SDS011;69982;51.758;5.784;2023-08-06T11:58:54;5.10;;;1.40;;
80625;SDS011;69982;51.758;5.784;2023-08-06T12:01:22;4.90;;;1.40;;
80625;SDS011;69982;51.758;5.784;2023-08-06T12:03:50;4.20;;;1.40;;
80625;SDS011;69982;51.758;5.784;2023-08-06T12:06:17;3.70;;;1.20;;
80625;SDS011;69982;51.758;5.784;2023-08-06T12:08:45;5.40;;;1.20;;
80625;SDS011;69982;51.758;5.784;2023-08-06T12:11:13;3.60;;;1.00;;
80625;SDS011;69982;51.758;5.784;2023-08-06T12:13:41;3.70;;;1.10;;
80625;SDS011;69982;51.758;5.784;2023-08-06T12:16:08;5.20;;;2.20;;
80625;SDS011;69982;51.758;5.784;2023-08-06T12:18:36;5.00;;;1.40;;
80625;SDS011;69982;51.758;5.784;2023-08-06T12:21:04;4.50;;;1.40;;
80625;SDS011;69982;51.758;5.784;2023-08-06T12:23:31;4.90;;;2.00;;
80625;SDS011;69982;51.758;5.784;2023-08-06T12:26:00;6.50;;;3.50;;
80625;SDS011;69982;51.758;5.784;2023-08-06T12:28:28;4.40;;;2.00;;
80625;SDS011;69982;51.758;5.784;2023-08-06T12:30:55;5.10;;;1.30;;
80625;SDS011;69982;51.758;5.784;2023-08-06T12:33:23;3.90;;;1.20;;
80625;SDS011;69982;51.758;5.784;2023-08-06T12:35:50;5.20;;;1.30;;
80625;SDS011;69982;51.758;5.784;2023-08-06T12:38:22;4.10;;;1.20;;
80625;SDS011;69982;51.758;5.784;2023-08-06T12:40:49;3.90;;;0.90;;
80625;SDS011;69982;51.758;5.784;2023-08-06T12:43:17;5.20;;;1.40;;
80625;SDS011;69982;51.758;5.784;2023-08-06T12:45:44;4.10;;;1.10;;
80625;SDS011;69982;51.758;5.784;2023-08-06T12:48:12;4.20;;;1.10;;
80625;SDS011;69982;51.758;5.784;2023-08-06T12:50:41;3.70;;;1.20;;
80625;SDS011;69982;51.758;5.784;2023-08-06T12:53:08;5.20;;;1.00;;
80625;SDS011;69982;51.758;5.784;2023-08-06T12:55:36;4.20;;;0.80;;
80625;SDS011;69982;51.758;5.784;2023-08-06T12:58:04;3.00;;;0.90;;
80625;SDS011;69982;51.758;5.784;2023-08-06T13:00:31;4.00;;;0.80;;
80625;SDS011;69982;51.758;5.784;2023-08-06T13:02:59;3.60;;;1.00;;
80625;SDS011;69982;51.758;5.784;2023-08-06T13:05:27;4.70;;;1.20;;
80625;SDS011;69982;51.758;5.784;2023-08-06T13:07:55;4.60;;;1.10;;
80625;SDS011;69982;51.758;5.784;2023-08-06T13:10:22;3.10;;;1.00;;
80625;SDS011;69982;51.758;5.784;2023-08-06T13:12:51;3.60;;;1.40;;
80625;SDS011;69982;51.758;5.784;2023-08-06T13:15:20;5.10;;;1.00;;
80625;SDS011;69982;51.758;5.784;2023-08-06T13:17:49;3.90;;;1.10;;
80625;SDS011;69982;51.758;5.784;2023-08-06T13:20:17;4.20;;;1.30;;
80625;SDS011;69982;51.758;5.784;2023-08-06T13:22:46;3.80;;;1.30;;
80625;SDS011;69982;51.758;5.784;2023-08-06T13:25:17;4.30;;;1.10;;
80625;SDS011;69982;51.758;5.784;2023-08-06T13:30:13;4.50;;;1.40;;
80625;SDS011;69982;51.758;5.784;2023-08-06T13:32:41;4.50;;;1.30;;
80625;SDS011;69982;51.758;5.784;2023-08-06T13:35:08;4.90;;;1.10;;
80625;SDS011;69982;51.758;5.784;2023-08-06T13:37:36;4.90;;;1.50;;
80625;SDS011;69982;51.758;5.784;2023-08-06T13:40:04;5.00;;;0.90;;
80625;SDS011;69982;51.758;5.784;2023-08-06T13:42:32;4.00;;;1.40;;
80625;SDS011;69982;51.758;5.784;2023-08-06T13:44:59;4.00;;;1.20;;
80625;SDS011;69982;51.758;5.784;2023-08-06T13:47:31;3.80;;;1.10;;
80625;SDS011;69982;51.758;5.784;2023-08-06T13:49:58;3.20;;;0.80;;
80625;SDS011;69982;51.758;5.784;2023-08-06T13:52:26;4.10;;;1.00;;
80625;SDS011;69982;51.758;5.784;2023-08-06T13:54:54;2.80;;;0.60;;
80625;SDS011;69982;51.758;5.784;2023-08-06T13:57:22;2.70;;;0.80;;
80625;SDS011;69982;51.758;5.784;2023-08-06T13:59:49;3.00;;;0.80;;
80625;SDS011;69982;51.758;5.784;2023-08-06T14:02:17;4.50;;;1.20;;
80625;SDS011;69982;51.758;5.784;2023-08-06T14:04:45;3.20;;;1.10;;
80625;SDS011;69982;51.758;5.784;2023-08-06T14:07:12;2.90;;;0.90;;
80625;SDS011;69982;51.758;5.784;2023-08-06T14:09:40;3.50;;;0.90;;
80625;SDS011;69982;51.758;5.784;2023-08-06T14:12:09;3.10;;;1.10;;
80625;SDS011;69982;51.758;5.784;2023-08-06T14:14:37;2.60;;;0.80;;
80625;SDS011;69982;51.758;5.784;2023-08-06T14:17:05;3.40;;;0.80;;
80625;SDS011;69982;51.758;5.784;2023-08-06T14:19:32;5.80;;;1.00;;
80625;SDS011;69982;51.758;5.784;2023-08-06T14:22:00;4.20;;;0.80;;
80625;SDS011;69982;51.758;5.784;2023-08-06T14:24:28;3.80;;;0.90;;
80625;SDS011;69982;51.758;5.784;2023-08-06T14:26:55;5.90;;;0.80;;
80625;SDS011;69982;51.758;5.784;2023-08-06T14:29:23;4.60;;;1.10;;
80625;SDS011;69982;51.758;5.784;2023-08-06T14:31:51;3.90;;;1.20;;
80625;SDS011;69982;51.758;5.784;2023-08-06T14:34:19;2.80;;;0.80;;
80625;SDS011;69982;51.758;5.784;2023-08-06T14:36:46;2.80;;;0.80;;
80625;SDS011;69982;51.758;5.784;2023-08-06T14:39:14;3.80;;;0.90;;
80625;SDS011;69982;51.758;5.784;2023-08-06T14:41:41;2.70;;;0.90;;
80625;SDS011;69982;51.758;5.784;2023-08-06T14:44:09;3.00;;;0.80;;
80625;SDS011;69982;51.758;5.784;2023-08-06T14:46:37;3.30;;;0.80;;
80625;SDS011;69982;51.758;5.784;2023-08-06T14:51:32;4.10;;;1.00;;
80625;SDS011;69982;51.758;5.784;2023-08-06T14:54:01;3.00;;;0.90;;
80625;SDS011;69982;51.758;5.784;2023-08-06T14:56:29;3.50;;;1.30;;
80625;SDS011;69982;51.758;5.784;2023-08-06T14:58:57;5.60;;;0.90;;
80625;SDS011;69982;51.758;5.784;2023-08-06T15:01:24;4.90;;;1.40;;
80625;SDS011;69982;51.758;5.784;2023-08-06T15:03:52;3.20;;;0.90;;
80625;SDS011;69982;51.758;5.784;2023-08-06T15:08:47;4.50;;;1.20;;
80625;SDS011;69982;51.758;5.784;2023-08-06T15:11:15;4.20;;;1.20;;
80625;SDS011;69982;51.758;5.784;2023-08-06T15:13:43;3.20;;;1.10;;
80625;SDS011;69982;51.758;5.784;2023-08-06T15:16:10;3.80;;;1.10;;
80625;SDS011;69982;51.758;5.784;2023-08-06T15:18:38;4.80;;;1.20;;
80625;SDS011;69982;51.758;5.784;2023-08-06T15:21:06;2.90;;;1.10;;
80625;SDS011;69982;51.758;5.784;2023-08-06T15:23:33;4.30;;;1.20;;
80625;SDS011;69982;51.758;5.784;2023-08-06T15:26:01;4.90;;;1.50;;
80625;SDS011;69982;51.758;5.784;2023-08-06T15:28:29;3.90;;;1.20;;